sensor_id;sensor_type;location;lat;lon;timestamp;P1;durP1;ratioP1;P2;durP2;ratioP2
13303;SDS011;6720;51.958;4.540;2024-02-16T00:02:05;5.27;;;4.70;;
13303;SDS011;6720;51.958;4.540;2024-02-16T00:04:30;4.37;;;3.97;;
13303;SDS011;6720;51.958;4.540;2024-02-16T00:06:56;5.47;;;4.57;;
13303;SDS011;6720;51.958;4.540;2024-02-16T00:09:21;5.47;;;4.27;;
13303;SDS011;6720;51.958;4.540;2024-02-16T00:11:47;4.70;;;4.10;;
13303;SDS011;6720;51.958;4.540;2024-02-16T00:14:13;4.97;;;4.53;;
13303;SDS011;6720;51.958;4.540;2024-02-16T00:16:39;6.13;;;4.37;;
13303;SDS011;6720;51.958;4.540;2024-02-16T00:19:05;5.53;;;4.50;;
13303;SDS011;6720;51.958;4.540;2024-02-16T00:21:31;5.33;;;4.73;;
13303;SDS011;6720;51.958;4.540;2024-02-16T00:23:56;5.43;;;4.33;;
13303;SDS011;6720;51.958;4.540;2024-02-16T00:26:21;4.70;;;4.20;;
13303;SDS011;6720;51.958;4.540;2024-02-16T00:28:48;5.97;;;4.50;;
13303;SDS011;6720;51.958;4.540;2024-02-16T00:31:14;5.10;;;4.43;;
13303;SDS011;6720;51.958;4.540;2024-02-16T00:33:39;5.10;;;4.60;;
13303;SDS011;6720;51.958;4.540;2024-02-16T00:36:04;4.97;;;4.23;;
13303;SDS011;6720;51.958;4.540;2024-02-16T00:38:30;5.07;;;4.30;;
13303;SDS011;6720;51.958;4.540;2024-02-16T00:40:55;6.00;;;4.33;;
13303;SDS011;6720;51.958;4.540;2024-02-16T00:43:20;4.63;;;4.17;;
13303;SDS011;6720;51.958;4.540;2024-02-16T00:45:45;5.43;;;4.40;;
13303;SDS011;6720;51.958;4.540;2024-02-16T00:48:11;4.57;;;4.10;;
13303;SDS011;6720;51.958;4.540;2024-02-16T00:50:36;4.57;;;4.07;;
13303;SDS011;6720;51.958;4.540;2024-02-16T00:53:02;5.13;;;4.10;;
13303;SDS011;6720;51.958;4.540;2024-02-16T00:55:27;4.90;;;4.50;;
13303;SDS011;6720;51.958;4.540;2024-02-16T00:57:52;5.17;;;4.50;;
13303;SDS011;6720;51.958;4.540;2024-02-16T01:00:18;4.93;;;3.97;;
13303;SDS011;6720;51.958;4.540;2024-02-16T01:02:44;5.27;;;4.30;;
13303;SDS011;6720;51.958;4.540;2024-02-16T01:05:10;6.00;;;4.43;;
13303;SDS011;6720;51.958;4.540;2024-02-16T01:07:35;4.27;;;3.87;;
13303;SDS011;6720;51.958;4.540;2024-02-16T01:10:01;4.93;;;4.43;;
13303;SDS011;6720;51.958;4.540;2024-02-16T01:12:28;6.10;;;4.80;;
13303;SDS011;6720;51.958;4.540;2024-02-16T01:14:56;6.10;;;4.73;;
13303;SDS011;6720;51.958;4.540;2024-02-16T01:17:22;4.87;;;4.07;;
13303;SDS011;6720;51.958;4.540;2024-02-16T01:19:47;5.10;;;4.57;;
13303;SDS011;6720;51.958;4.540;2024-02-16T01:22:14;5.77;;;4.47;;
13303;SDS011;6720;51.958;4.540;2024-02-16T01:24:39;4.77;;;4.20;;
13303;SDS011;6720;51.958;4.540;2024-02-16T01:27:04;8.63;;;4.93;;
13303;SDS011;6720;51.958;4.540;2024-02-16T01:29:30;5.93;;;5.07;;
13303;SDS011;6720;51.958;4.540;2024-02-16T01:31:57;6.43;;;4.60;;
13303;SDS011;6720;51.958;4.540;2024-02-16T01:34:22;4.87;;;4.20;;
13303;SDS011;6720;51.958;4.540;2024-02-16T01:36:48;5.80;;;4.30;;
13303;SDS011;6720;51.958;4.540;2024-02-16T01:39:13;6.17;;;4.80;;
13303;SDS011;6720;51.958;4.540;2024-02-16T01:41:38;7.03;;;4.77;;
13303;SDS011;6720;51.958;4.540;2024-02-16T01:44:04;5.37;;;4.47;;
13303;SDS011;6720;51.958;4.540;2024-02-16T01:46:30;6.83;;;4.63;;
13303;SDS011;6720;51.958;4.540;2024-02-16T01:48:55;5.43;;;4.83;;
13303;SDS011;6720;51.958;4.540;2024-02-16T01:51:22;5.73;;;4.57;;
13303;SDS011;6720;51.958;4.540;2024-02-16T01:53:48;5.30;;;4.60;;
13303;SDS011;6720;51.958;4.540;2024-02-16T01:56:13;8.73;;;4.60;;
13303;SDS011;6720;51.958;4.540;2024-02-16T01:58:39;5.43;;;4.50;;
13303;SDS011;6720;51.958;4.540;2024-02-16T02:01:04;5.77;;;4.43;;
13303;SDS011;6720;51.958;4.540;2024-02-16T02:03:30;5.63;;;4.50;;
13303;SDS011;6720;51.958;4.540;2024-02-16T02:05:56;5.80;;;4.63;;
13303;SDS011;6720;51.958;4.540;2024-02-16T02:08:21;7.27;;;4.90;;
13303;SDS011;6720;51.958;4.540;2024-02-16T02:10:47;5.10;;;4.60;;
13303;SDS011;6720;51.958;4.540;2024-02-16T02:13:14;5.50;;;4.50;;
13303;SDS011;6720;51.958;4.540;2024-02-16T02:15:40;5.57;;;4.73;;
13303;SDS011;6720;51.958;4.540;2024-02-16T02:18:05;5.47;;;4.97;;
13303;SDS011;6720;51.958;4.540;2024-02-16T02:20:30;6.53;;;4.20;;
13303;SDS011;6720;51.958;4.540;2024-02-16T02:22:56;6.07;;;4.60;;
13303;SDS011;6720;51.958;4.540;2024-02-16T02:25:21;4.83;;;4.33;;
13303;SDS011;6720;51.958;4.540;2024-02-16T02:27:47;5.50;;;4.70;;
13303;SDS011;6720;51.958;4.540;2024-02-16T02:30:12;6.93;;;4.73;;
13303;SDS011;6720;51.958;4.540;2024-02-16T02:32:37;5.53;;;4.90;;
13303;SDS011;6720;51.958;4.540;2024-02-16T02:35:03;7.50;;;4.80;;
13303;SDS011;6720;51.958;4.540;2024-02-16T02:37:30;6.57;;;4.53;;
13303;SDS011;6720;51.958;4.540;2024-02-16T02:39:55;6.27;;;4.60;;
13303;SDS011;6720;51.958;4.540;2024-02-16T02:42:21;6.90;;;4.63;;
13303;SDS011;6720;51.958;4.540;2024-02-16T02:44:47;8.43;;;4.87;;
13303;SDS011;6720;51.958;4.540;2024-02-16T02:47:15;4.77;;;4.30;;
13303;SDS011;6720;51.958;4.540;2024-02-16T02:49:40;5.40;;;4.90;;
13303;SDS011;6720;51.958;4.540;2024-02-16T02:52:06;5.07;;;4.43;;
13303;SDS011;6720;51.958;4.540;2024-02-16T02:54:31;7.17;;;4.67;;
13303;SDS011;6720;51.958;4.540;2024-02-16T02:56:56;6.00;;;4.73;;
13303;SDS011;6720;51.958;4.540;2024-02-16T02:59:22;5.83;;;4.43;;
13303;SDS011;6720;51.958;4.540;2024-02-16T03:01:47;5.00;;;4.50;;
13303;SDS011;6720;51.958;4.540;2024-02-16T03:04:14;5.53;;;4.50;;
13303;SDS011;6720;51.958;4.540;2024-02-16T03:06:42;4.83;;;4.37;;
13303;SDS011;6720;51.958;4.540;2024-02-16T03:09:07;5.20;;;4.70;;
13303;SDS011;6720;51.958;4.540;2024-02-16T03:11:32;5.40;;;4.60;;
13303;SDS011;6720;51.958;4.540;2024-02-16T03:13:58;5.03;;;4.47;;
13303;SDS011;6720;51.958;4.540;2024-02-16T03:16:23;5.93;;;4.40;;
13303;SDS011;6720;51.958;4.540;2024-02-16T03:18:48;4.77;;;4.27;;
13303;SDS011;6720;51.958;4.540;2024-02-16T03:21:14;6.00;;;4.80;;
13303;SDS011;6720;51.958;4.540;2024-02-16T03:23:42;7.03;;;4.70;;
13303;SDS011;6720;51.958;4.540;2024-02-16T03:26:15;4.90;;;4.50;;
13303;SDS011;6720;51.958;4.540;2024-02-16T03:28:40;5.70;;;4.83;;
13303;SDS011;6720;51.958;4.540;2024-02-16T03:31:06;5.17;;;4.67;;
13303;SDS011;6720;51.958;4.540;2024-02-16T03:33:33;4.77;;;4.23;;
13303;SDS011;6720;51.958;4.540;2024-02-16T03:35:59;4.90;;;4.40;;
13303;SDS011;6720;51.958;4.540;2024-02-16T03:38:25;5.13;;;4.73;;
13303;SDS011;6720;51.958;4.540;2024-02-16T03:40:51;6.33;;;4.73;;
13303;SDS011;6720;51.958;4.540;2024-02-16T03:43:16;5.67;;;4.23;;
13303;SDS011;6720;51.958;4.540;2024-02-16T03:45:42;4.73;;;4.23;;
13303;SDS011;6720;51.958;4.540;2024-02-16T03:48:07;5.47;;;4.13;;
13303;SDS011;6720;51.958;4.540;2024-02-16T03:50:32;5.80;;;4.50;;
13303;SDS011;6720;51.958;4.540;2024-02-16T03:52:57;4.93;;;4.43;;
13303;SDS011;6720;51.958;4.540;2024-02-16T03:55:24;5.67;;;4.40;;
13303;SDS011;6720;51.958;4.540;2024-02-16T03:57:50;5.60;;;5.00;;
13303;SDS011;6720;51.958;4.540;2024-02-16T04:00:17;6.03;;;4.67;;
13303;SDS011;6720;51.958;4.540;2024-02-16T04:02:42;4.97;;;4.47;;
13303;SDS011;6720;51.958;4.540;2024-02-16T04:05:07;5.60;;;4.47;;
13303;SDS011;6720;51.958;4.540;2024-02-16T04:07:33;6.17;;;4.40;;
13303;SDS011;6720;51.958;4.540;2024-02-16T04:09:58;6.33;;;4.93;;
13303;SDS011;6720;51.958;4.540;2024-02-16T04:12:25;6.00;;;4.87;;
13303;SDS011;6720;51.958;4.540;2024-02-16T04:14:50;5.77;;;4.40;;
13303;SDS011;6720;51.958;4.540;2024-02-16T04:17:16;6.47;;;4.77;;
13303;SDS011;6720;51.958;4.540;2024-02-16T04:19:42;5.07;;;4.57;;
13303;SDS011;6720;51.958;4.540;2024-02-16T04:22:07;5.67;;;5.07;;
13303;SDS011;6720;51.958;4.540;2024-02-16T04:24:33;5.70;;;4.80;;
13303;SDS011;6720;51.958;4.540;2024-02-16T04:26:58;5.77;;;5.17;;
13303;SDS011;6720;51.958;4.540;2024-02-16T04:29:24;7.33;;;4.80;;
13303;SDS011;6720;51.958;4.540;2024-02-16T04:31:49;5.87;;;4.50;;
13303;SDS011;6720;51.958;4.540;2024-02-16T04:34:14;6.57;;;4.70;;
13303;SDS011;6720;51.958;4.540;2024-02-16T04:36:41;5.17;;;4.70;;
13303;SDS011;6720;51.958;4.540;2024-02-16T04:39:06;7.20;;;5.00;;
13303;SDS011;6720;51.958;4.540;2024-02-16T04:41:35;7.10;;;4.80;;
13303;SDS011;6720;51.958;4.540;2024-02-16T04:44:00;6.07;;;5.00;;
13303;SDS011;6720;51.958;4.540;2024-02-16T04:46:26;5.53;;;4.77;;
13303;SDS011;6720;51.958;4.540;2024-02-16T04:48:52;6.67;;;4.87;;
13303;SDS011;6720;51.958;4.540;2024-02-16T04:51:18;5.50;;;4.93;;
13303;SDS011;6720;51.958;4.540;2024-02-16T04:53:43;5.27;;;4.73;;
13303;SDS011;6720;51.958;4.540;2024-02-16T04:56:08;8.00;;;5.33;;
13303;SDS011;6720;51.958;4.540;2024-02-16T04:58:34;5.73;;;4.77;;
13303;SDS011;6720;51.958;4.540;2024-02-16T05:00:59;5.23;;;4.73;;
13303;SDS011;6720;51.958;4.540;2024-02-16T05:03:24;7.00;;;5.30;;
13303;SDS011;6720;51.958;4.540;2024-02-16T05:05:52;6.57;;;4.83;;
13303;SDS011;6720;51.958;4.540;2024-02-16T05:08:18;7.00;;;4.70;;
13303;SDS011;6720;51.958;4.540;2024-02-16T05:10:43;6.33;;;5.00;;
13303;SDS011;6720;51.958;4.540;2024-02-16T05:13:09;5.67;;;5.17;;
13303;SDS011;6720;51.958;4.540;2024-02-16T05:15:35;5.80;;;5.17;;
13303;SDS011;6720;51.958;4.540;2024-02-16T05:18:01;6.23;;;5.20;;
13303;SDS011;6720;51.958;4.540;2024-02-16T05:20:27;5.87;;;4.90;;
13303;SDS011;6720;51.958;4.540;2024-02-16T05:22:52;6.07;;;5.33;;
13303;SDS011;6720;51.958;4.540;2024-02-16T05:25:18;8.60;;;5.53;;
13303;SDS011;6720;51.958;4.540;2024-02-16T05:27:44;6.43;;;5.57;;
13303;SDS011;6720;51.958;4.540;2024-02-16T05:30:10;7.57;;;5.27;;
13303;SDS011;6720;51.958;4.540;2024-02-16T05:32:37;6.60;;;5.50;;
13303;SDS011;6720;51.958;4.540;2024-02-16T05:35:03;5.80;;;5.20;;
13303;SDS011;6720;51.958;4.540;2024-02-16T05:37:39;6.07;;;5.37;;
13303;SDS011;6720;51.958;4.540;2024-02-16T05:40:08;6.27;;;5.23;;
13303;SDS011;6720;51.958;4.540;2024-02-16T05:42:47;7.47;;;5.30;;
13303;SDS011;6720;51.958;4.540;2024-02-16T05:45:13;7.23;;;5.90;;
13303;SDS011;6720;51.958;4.540;2024-02-16T05:47:39;9.73;;;5.60;;
13303;SDS011;6720;51.958;4.540;2024-02-16T05:50:05;7.03;;;5.83;;
13303;SDS011;6720;51.958;4.540;2024-02-16T05:52:32;8.47;;;5.33;;
13303;SDS011;6720;51.958;4.540;2024-02-16T05:54:57;6.77;;;5.73;;
13303;SDS011;6720;51.958;4.540;2024-02-16T05:57:23;7.33;;;5.60;;
13303;SDS011;6720;51.958;4.540;2024-02-16T05:59:49;7.37;;;5.60;;
13303;SDS011;6720;51.958;4.540;2024-02-16T06:02:14;7.13;;;5.97;;
13303;SDS011;6720;51.958;4.540;2024-02-16T06:04:40;7.67;;;5.80;;
13303;SDS011;6720;51.958;4.540;2024-02-16T06:07:06;7.20;;;5.33;;
13303;SDS011;6720;51.958;4.540;2024-02-16T06:09:31;6.23;;;5.60;;
13303;SDS011;6720;51.958;4.540;2024-02-16T06:12:02;6.63;;;5.40;;
13303;SDS011;6720;51.958;4.540;2024-02-16T06:14:32;9.33;;;5.63;;
13303;SDS011;6720;51.958;4.540;2024-02-16T06:16:58;8.70;;;6.30;;
13303;SDS011;6720;51.958;4.540;2024-02-16T06:19:24;6.57;;;5.90;;
13303;SDS011;6720;51.958;4.540;2024-02-16T06:21:49;7.83;;;5.63;;
13303;SDS011;6720;51.958;4.540;2024-02-16T06:24:14;8.33;;;5.90;;
13303;SDS011;6720;51.958;4.540;2024-02-16T06:26:40;6.83;;;5.73;;
13303;SDS011;6720;51.958;4.540;2024-02-16T06:29:05;7.00;;;5.80;;
13303;SDS011;6720;51.958;4.540;2024-02-16T06:31:30;8.20;;;6.00;;
13303;SDS011;6720;51.958;4.540;2024-02-16T06:33:55;8.43;;;5.87;;
13303;SDS011;6720;51.958;4.540;2024-02-16T06:36:22;8.17;;;6.00;;
13303;SDS011;6720;51.958;4.540;2024-02-16T06:38:47;8.73;;;6.33;;
13303;SDS011;6720;51.958;4.540;2024-02-16T06:41:13;8.30;;;5.90;;
13303;SDS011;6720;51.958;4.540;2024-02-16T06:43:38;8.40;;;6.63;;
13303;SDS011;6720;51.958;4.540;2024-02-16T06:46:03;6.70;;;5.60;;
13303;SDS011;6720;51.958;4.540;2024-02-16T06:48:30;7.43;;;6.10;;
13303;SDS011;6720;51.958;4.540;2024-02-16T06:50:56;7.73;;;6.13;;
13303;SDS011;6720;51.958;4.540;2024-02-16T06:53:23;7.20;;;6.33;;
13303;SDS011;6720;51.958;4.540;2024-02-16T06:55:48;8.13;;;6.20;;
13303;SDS011;6720;51.958;4.540;2024-02-16T06:58:14;8.77;;;6.10;;
13303;SDS011;6720;51.958;4.540;2024-02-16T07:00:39;6.90;;;6.17;;
13303;SDS011;6720;51.958;4.540;2024-02-16T07:03:07;7.00;;;6.20;;
13303;SDS011;6720;51.958;4.540;2024-02-16T07:05:32;8.33;;;6.13;;
13303;SDS011;6720;51.958;4.540;2024-02-16T07:07:58;7.17;;;6.47;;
13303;SDS011;6720;51.958;4.540;2024-02-16T07:10:25;7.37;;;6.50;;
13303;SDS011;6720;51.958;4.540;2024-02-16T07:12:50;8.90;;;6.03;;
13303;SDS011;6720;51.958;4.540;2024-02-16T07:15:15;9.37;;;6.70;;
13303;SDS011;6720;51.958;4.540;2024-02-16T07:17:41;9.77;;;6.40;;
13303;SDS011;6720;51.958;4.540;2024-02-16T07:20:06;9.07;;;6.23;;
13303;SDS011;6720;51.958;4.540;2024-02-16T07:22:32;6.53;;;5.93;;
13303;SDS011;6720;51.958;4.540;2024-02-16T07:24:58;7.90;;;6.50;;
13303;SDS011;6720;51.958;4.540;2024-02-16T07:27:25;8.33;;;6.67;;
13303;SDS011;6720;51.958;4.540;2024-02-16T07:29:52;10.53;;;6.60;;
13303;SDS011;6720;51.958;4.540;2024-02-16T07:32:17;7.63;;;6.70;;
13303;SDS011;6720;51.958;4.540;2024-02-16T07:34:46;7.90;;;5.90;;
13303;SDS011;6720;51.958;4.540;2024-02-16T07:37:12;7.37;;;6.43;;
13303;SDS011;6720;51.958;4.540;2024-02-16T07:39:38;9.20;;;6.73;;
13303;SDS011;6720;51.958;4.540;2024-02-16T07:42:03;9.87;;;6.43;;
13303;SDS011;6720;51.958;4.540;2024-02-16T07:44:28;7.83;;;6.57;;
13303;SDS011;6720;51.958;4.540;2024-02-16T07:46:54;8.00;;;6.63;;
13303;SDS011;6720;51.958;4.540;2024-02-16T07:49:19;7.27;;;6.47;;
13303;SDS011;6720;51.958;4.540;2024-02-16T07:51:44;6.50;;;5.77;;
13303;SDS011;6720;51.958;4.540;2024-02-16T07:54:10;7.47;;;6.67;;
13303;SDS011;6720;51.958;4.540;2024-02-16T07:56:38;7.37;;;6.47;;
13303;SDS011;6720;51.958;4.540;2024-02-16T07:59:09;6.90;;;6.20;;
13303;SDS011;6720;51.958;4.540;2024-02-16T08:01:34;11.57;;;6.60;;
13303;SDS011;6720;51.958;4.540;2024-02-16T08:04:00;9.43;;;6.40;;
13303;SDS011;6720;51.958;4.540;2024-02-16T08:06:26;7.90;;;6.27;;
13303;SDS011;6720;51.958;4.540;2024-02-16T08:08:52;10.70;;;7.00;;
13303;SDS011;6720;51.958;4.540;2024-02-16T08:11:17;9.57;;;6.77;;
13303;SDS011;6720;51.958;4.540;2024-02-16T08:13:42;10.67;;;6.67;;
13303;SDS011;6720;51.958;4.540;2024-02-16T08:16:08;8.80;;;6.67;;
13303;SDS011;6720;51.958;4.540;2024-02-16T08:18:33;6.73;;;5.90;;
13303;SDS011;6720;51.958;4.540;2024-02-16T08:20:59;7.70;;;6.90;;
13303;SDS011;6720;51.958;4.540;2024-02-16T08:23:25;7.87;;;6.30;;
13303;SDS011;6720;51.958;4.540;2024-02-16T08:25:50;8.53;;;6.10;;
13303;SDS011;6720;51.958;4.540;2024-02-16T08:28:15;9.77;;;8.47;;
13303;SDS011;6720;51.958;4.540;2024-02-16T08:30:41;10.30;;;6.53;;
13303;SDS011;6720;51.958;4.540;2024-02-16T08:33:09;8.27;;;6.13;;
13303;SDS011;6720;51.958;4.540;2024-02-16T08:35:34;8.13;;;6.37;;
13303;SDS011;6720;51.958;4.540;2024-02-16T08:37:59;8.03;;;6.50;;
13303;SDS011;6720;51.958;4.540;2024-02-16T08:40:25;7.37;;;5.97;;
13303;SDS011;6720;51.958;4.540;2024-02-16T08:42:51;8.13;;;6.47;;
13303;SDS011;6720;51.958;4.540;2024-02-16T08:45:16;17.43;;;12.23;;
13303;SDS011;6720;51.958;4.540;2024-02-16T08:47:44;7.67;;;6.80;;
13303;SDS011;6720;51.958;4.540;2024-02-16T08:50:10;9.23;;;6.70;;
13303;SDS011;6720;51.958;4.540;2024-02-16T08:52:36;7.17;;;6.47;;
13303;SDS011;6720;51.958;4.540;2024-02-16T08:55:01;6.80;;;6.20;;
13303;SDS011;6720;51.958;4.540;2024-02-16T08:57:27;7.87;;;7.03;;
13303;SDS011;6720;51.958;4.540;2024-02-16T08:59:52;9.67;;;7.03;;
13303;SDS011;6720;51.958;4.540;2024-02-16T09:02:18;9.00;;;6.90;;
13303;SDS011;6720;51.958;4.540;2024-02-16T09:04:43;9.83;;;7.20;;
13303;SDS011;6720;51.958;4.540;2024-02-16T09:07:10;9.70;;;7.17;;
13303;SDS011;6720;51.958;4.540;2024-02-16T09:09:35;8.90;;;8.00;;
13303;SDS011;6720;51.958;4.540;2024-02-16T09:12:01;10.43;;;7.73;;
13303;SDS011;6720;51.958;4.540;2024-02-16T09:14:26;10.27;;;7.73;;
13303;SDS011;6720;51.958;4.540;2024-02-16T09:16:51;11.30;;;7.80;;
13303;SDS011;6720;51.958;4.540;2024-02-16T09:19:17;21.93;;;14.37;;
13303;SDS011;6720;51.958;4.540;2024-02-16T09:21:42;16.53;;;12.90;;
13303;SDS011;6720;51.958;4.540;2024-02-16T09:24:09;30.13;;;18.03;;
13303;SDS011;6720;51.958;4.540;2024-02-16T09:26:39;21.67;;;15.60;;
13303;SDS011;6720;51.958;4.540;2024-02-16T09:29:04;32.53;;;21.23;;
13303;SDS011;6720;51.958;4.540;2024-02-16T09:31:29;30.70;;;19.17;;
13303;SDS011;6720;51.958;4.540;2024-02-16T09:33:55;17.30;;;10.00;;
13303;SDS011;6720;51.958;4.540;2024-02-16T09:36:20;25.13;;;16.53;;
13303;SDS011;6720;51.958;4.540;2024-02-16T09:38:45;19.50;;;12.63;;
13303;SDS011;6720;51.958;4.540;2024-02-16T09:41:12;17.60;;;10.77;;
13303;SDS011;6720;51.958;4.540;2024-02-16T09:43:41;23.47;;;13.40;;
13303;SDS011;6720;51.958;4.540;2024-02-16T09:46:06;20.07;;;11.63;;
13303;SDS011;6720;51.958;4.540;2024-02-16T09:48:33;17.13;;;12.40;;
13303;SDS011;6720;51.958;4.540;2024-02-16T09:50:59;17.10;;;12.20;;
13303;SDS011;6720;51.958;4.540;2024-02-16T09:53:25;20.97;;;12.47;;
13303;SDS011;6720;51.958;4.540;2024-02-16T09:55:52;20.03;;;12.60;;
13303;SDS011;6720;51.958;4.540;2024-02-16T09:58:19;18.90;;;12.50;;
13303;SDS011;6720;51.958;4.540;2024-02-16T10:01:02;20.93;;;13.33;;
13303;SDS011;6720;51.958;4.540;2024-02-16T10:03:29;19.90;;;13.43;;
13303;SDS011;6720;51.958;4.540;2024-02-16T10:06:08;20.03;;;13.40;;
13303;SDS011;6720;51.958;4.540;2024-02-16T10:08:34;24.53;;;13.97;;
13303;SDS011;6720;51.958;4.540;2024-02-16T10:11:00;19.77;;;12.83;;
13303;SDS011;6720;51.958;4.540;2024-02-16T10:13:25;23.33;;;14.30;;
13303;SDS011;6720;51.958;4.540;2024-02-16T10:15:51;20.90;;;13.30;;
13303;SDS011;6720;51.958;4.540;2024-02-16T10:18:16;22.10;;;13.90;;
13303;SDS011;6720;51.958;4.540;2024-02-16T10:20:44;21.97;;;13.90;;
13303;SDS011;6720;51.958;4.540;2024-02-16T10:23:09;17.73;;;12.83;;
13303;SDS011;6720;51.958;4.540;2024-02-16T10:25:35;22.47;;;14.37;;
13303;SDS011;6720;51.958;4.540;2024-02-16T10:28:12;22.17;;;13.97;;
13303;SDS011;6720;51.958;4.540;2024-02-16T10:30:40;18.37;;;12.40;;
13303;SDS011;6720;51.958;4.540;2024-02-16T10:33:06;19.77;;;13.17;;
13303;SDS011;6720;51.958;4.540;2024-02-16T10:35:32;16.87;;;12.30;;
13303;SDS011;6720;51.958;4.540;2024-02-16T10:37:59;19.63;;;13.20;;
13303;SDS011;6720;51.958;4.540;2024-02-16T10:40:26;19.87;;;12.40;;
13303;SDS011;6720;51.958;4.540;2024-02-16T10:42:52;16.60;;;12.57;;
13303;SDS011;6720;51.958;4.540;2024-02-16T10:45:18;18.20;;;11.83;;
13303;SDS011;6720;51.958;4.540;2024-02-16T10:47:44;14.63;;;11.07;;
13303;SDS011;6720;51.958;4.540;2024-02-16T10:50:09;16.33;;;11.70;;
13303;SDS011;6720;51.958;4.540;2024-02-16T10:52:36;15.27;;;10.87;;
13303;SDS011;6720;51.958;4.540;2024-02-16T10:55:04;14.27;;;10.40;;
13303;SDS011;6720;51.958;4.540;2024-02-16T10:57:30;17.00;;;11.27;;
13303;SDS011;6720;51.958;4.540;2024-02-16T10:59:56;14.77;;;10.93;;
13303;SDS011;6720;51.958;4.540;2024-02-16T11:02:24;14.50;;;12.23;;
13303;SDS011;6720;51.958;4.540;2024-02-16T11:04:51;18.73;;;12.63;;
13303;SDS011;6720;51.958;4.540;2024-02-16T11:07:19;16.53;;;13.20;;
13303;SDS011;6720;51.958;4.540;2024-02-16T11:09:45;18.67;;;13.93;;
13303;SDS011;6720;51.958;4.540;2024-02-16T11:12:13;17.10;;;14.23;;
13303;SDS011;6720;51.958;4.540;2024-02-16T11:14:41;16.60;;;14.40;;
13303;SDS011;6720;51.958;4.540;2024-02-16T11:17:12;17.97;;;14.60;;
13303;SDS011;6720;51.958;4.540;2024-02-16T11:19:41;16.07;;;13.37;;
13303;SDS011;6720;51.958;4.540;2024-02-16T11:22:07;14.07;;;11.73;;
13303;SDS011;6720;51.958;4.540;2024-02-16T11:24:37;16.23;;;12.27;;
13303;SDS011;6720;51.958;4.540;2024-02-16T11:27:07;13.23;;;11.30;;
13303;SDS011;6720;51.958;4.540;2024-02-16T11:29:33;10.23;;;9.10;;
13303;SDS011;6720;51.958;4.540;2024-02-16T11:32:01;12.60;;;8.60;;
13303;SDS011;6720;51.958;4.540;2024-02-16T11:34:28;12.07;;;8.77;;
13303;SDS011;6720;51.958;4.540;2024-02-16T11:36:57;9.00;;;8.07;;
13303;SDS011;6720;51.958;4.540;2024-02-16T11:39:23;10.93;;;7.97;;
13303;SDS011;6720;51.958;4.540;2024-02-16T11:41:58;11.50;;;7.70;;
13303;SDS011;6720;51.958;4.540;2024-02-16T11:44:25;8.63;;;7.07;;
13303;SDS011;6720;51.958;4.540;2024-02-16T11:46:55;9.27;;;6.93;;
13303;SDS011;6720;51.958;4.540;2024-02-16T11:49:20;9.80;;;7.00;;
13303;SDS011;6720;51.958;4.540;2024-02-16T11:51:47;10.10;;;7.40;;
13303;SDS011;6720;51.958;4.540;2024-02-16T11:54:13;10.10;;;7.03;;
13303;SDS011;6720;51.958;4.540;2024-02-16T11:56:42;9.47;;;8.27;;
13303;SDS011;6720;51.958;4.540;2024-02-16T11:59:09;7.97;;;7.03;;
13303;SDS011;6720;51.958;4.540;2024-02-16T12:01:35;10.90;;;7.43;;
13303;SDS011;6720;51.958;4.540;2024-02-16T12:04:00;8.57;;;7.30;;
13303;SDS011;6720;51.958;4.540;2024-02-16T12:06:26;10.87;;;7.67;;
13303;SDS011;6720;51.958;4.540;2024-02-16T12:08:51;7.93;;;6.90;;
13303;SDS011;6720;51.958;4.540;2024-02-16T12:11:18;8.47;;;6.87;;
13303;SDS011;6720;51.958;4.540;2024-02-16T12:13:45;8.20;;;7.37;;
13303;SDS011;6720;51.958;4.540;2024-02-16T12:16:10;10.00;;;5.77;;
13303;SDS011;6720;51.958;4.540;2024-02-16T12:18:36;6.47;;;5.47;;
13303;SDS011;6720;51.958;4.540;2024-02-16T12:21:01;7.03;;;5.70;;
13303;SDS011;6720;51.958;4.540;2024-02-16T12:23:27;8.00;;;5.50;;
13303;SDS011;6720;51.958;4.540;2024-02-16T12:25:53;7.43;;;5.77;;
13303;SDS011;6720;51.958;4.540;2024-02-16T12:28:18;5.80;;;5.23;;
13303;SDS011;6720;51.958;4.540;2024-02-16T12:30:47;7.60;;;6.23;;
13303;SDS011;6720;51.958;4.540;2024-02-16T12:33:13;7.77;;;5.70;;
13303;SDS011;6720;51.958;4.540;2024-02-16T12:35:38;7.53;;;5.87;;
13303;SDS011;6720;51.958;4.540;2024-02-16T12:38:04;9.20;;;7.13;;
13303;SDS011;6720;51.958;4.540;2024-02-16T12:40:29;9.77;;;6.80;;
13303;SDS011;6720;51.958;4.540;2024-02-16T12:42:55;87.33;;;21.57;;
13303;SDS011;6720;51.958;4.540;2024-02-16T12:45:20;25.93;;;11.57;;
13303;SDS011;6720;51.958;4.540;2024-02-16T12:47:47;12.17;;;8.70;;
13303;SDS011;6720;51.958;4.540;2024-02-16T12:50:13;12.37;;;8.80;;
13303;SDS011;6720;51.958;4.540;2024-02-16T12:52:38;10.97;;;8.83;;
13303;SDS011;6720;51.958;4.540;2024-02-16T12:55:05;12.67;;;9.27;;
13303;SDS011;6720;51.958;4.540;2024-02-16T12:57:30;12.47;;;8.83;;
13303;SDS011;6720;51.958;4.540;2024-02-16T12:59:56;10.43;;;9.33;;
13303;SDS011;6720;51.958;4.540;2024-02-16T13:02:21;10.67;;;8.63;;
13303;SDS011;6720;51.958;4.540;2024-02-16T13:04:48;11.27;;;8.40;;
13303;SDS011;6720;51.958;4.540;2024-02-16T13:07:13;10.07;;;8.67;;
13303;SDS011;6720;51.958;4.540;2024-02-16T13:09:38;9.73;;;8.10;;
13303;SDS011;6720;51.958;4.540;2024-02-16T13:12:05;11.03;;;8.77;;
13303;SDS011;6720;51.958;4.540;2024-02-16T13:14:30;11.30;;;8.10;;
13303;SDS011;6720;51.958;4.540;2024-02-16T13:16:55;27.03;;;20.07;;
13303;SDS011;6720;51.958;4.540;2024-02-16T13:19:21;10.87;;;8.43;;
13303;SDS011;6720;51.958;4.540;2024-02-16T13:21:46;9.43;;;8.37;;
13303;SDS011;6720;51.958;4.540;2024-02-16T13:24:12;11.17;;;8.80;;
13303;SDS011;6720;51.958;4.540;2024-02-16T13:26:37;9.37;;;7.90;;
13303;SDS011;6720;51.958;4.540;2024-02-16T13:29:02;9.00;;;8.00;;
13303;SDS011;6720;51.958;4.540;2024-02-16T13:31:28;9.37;;;8.47;;
13303;SDS011;6720;51.958;4.540;2024-02-16T13:33:53;8.70;;;7.87;;
13303;SDS011;6720;51.958;4.540;2024-02-16T13:36:19;9.27;;;8.23;;
13303;SDS011;6720;51.958;4.540;2024-02-16T13:38:48;9.20;;;8.30;;
13303;SDS011;6720;51.958;4.540;2024-02-16T13:41:14;8.87;;;7.97;;
13303;SDS011;6720;51.958;4.540;2024-02-16T13:43:39;9.20;;;7.83;;
13303;SDS011;6720;51.958;4.540;2024-02-16T13:46:04;9.03;;;8.13;;
13303;SDS011;6720;51.958;4.540;2024-02-16T13:48:31;9.23;;;8.30;;
13303;SDS011;6720;51.958;4.540;2024-02-16T13:50:56;8.63;;;7.70;;
13303;SDS011;6720;51.958;4.540;2024-02-16T13:53:22;9.67;;;8.57;;
13303;SDS011;6720;51.958;4.540;2024-02-16T13:55:51;13.17;;;8.63;;
13303;SDS011;6720;51.958;4.540;2024-02-16T13:58:16;9.37;;;8.37;;
13303;SDS011;6720;51.958;4.540;2024-02-16T14:00:42;9.67;;;8.40;;
13303;SDS011;6720;51.958;4.540;2024-02-16T14:03:08;9.47;;;8.53;;
13303;SDS011;6720;51.958;4.540;2024-02-16T14:05:36;9.17;;;8.13;;
13303;SDS011;6720;51.958;4.540;2024-02-16T14:08:02;9.60;;;8.60;;
13303;SDS011;6720;51.958;4.540;2024-02-16T14:10:28;8.77;;;7.87;;
13303;SDS011;6720;51.958;4.540;2024-02-16T14:12:53;12.30;;;9.53;;
13303;SDS011;6720;51.958;4.540;2024-02-16T14:15:19;9.43;;;8.43;;
13303;SDS011;6720;51.958;4.540;2024-02-16T14:17:45;10.60;;;8.37;;
13303;SDS011;6720;51.958;4.540;2024-02-16T14:20:10;9.97;;;9.00;;
13303;SDS011;6720;51.958;4.540;2024-02-16T14:22:36;9.63;;;8.63;;
13303;SDS011;6720;51.958;4.540;2024-02-16T14:25:01;9.63;;;8.63;;
13303;SDS011;6720;51.958;4.540;2024-02-16T14:27:26;10.03;;;8.83;;
13303;SDS011;6720;51.958;4.540;2024-02-16T14:29:52;10.27;;;9.37;;
13303;SDS011;6720;51.958;4.540;2024-02-16T14:32:17;9.90;;;8.90;;
13303;SDS011;6720;51.958;4.540;2024-02-16T14:34:42;11.13;;;9.83;;
13303;SDS011;6720;51.958;4.540;2024-02-16T14:37:09;39.23;;;27.90;;
13303;SDS011;6720;51.958;4.540;2024-02-16T14:39:34;12.50;;;9.53;;
13303;SDS011;6720;51.958;4.540;2024-02-16T14:41:59;23.00;;;14.93;;
13303;SDS011;6720;51.958;4.540;2024-02-16T14:44:24;9.47;;;8.13;;
13303;SDS011;6720;51.958;4.540;2024-02-16T14:46:50;11.87;;;10.27;;
13303;SDS011;6720;51.958;4.540;2024-02-16T14:49:15;14.53;;;12.27;;